sensor_id;sensor_type;location;lat;lon;timestamp;temperature;humidity
33580;DHT22;19909;43.644;-79.438;2023-04-25T00:00:30;18.60;43.90
33580;DHT22;19909;43.644;-79.438;2023-04-25T00:02:56;18.60;44.00
33580;DHT22;19909;43.644;-79.438;2023-04-25T00:05:23;18.60;43.60
33580;DHT22;19909;43.644;-79.438;2023-04-25T00:07:50;18.60;43.40
33580;DHT22;19909;43.644;-79.438;2023-04-25T00:10:16;18.60;43.40
33580;DHT22;19909;43.644;-79.438;2023-04-25T00:12:42;18.60;43.50
33580;DHT22;19909;43.644;-79.438;2023-04-25T00:15:08;18.60;43.50
33580;DHT22;19909;43.644;-79.438;2023-04-25T00:17:35;18.60;43.40
33580;DHT22;19909;43.644;-79.438;2023-04-25T00:20:05;18.60;43.40
33580;DHT22;19909;43.644;-79.438;2023-04-25T00:22:32;18.60;43.60
33580;DHT22;19909;43.644;-79.438;2023-04-25T00:25:00;18.60;43.70
33580;DHT22;19909;43.644;-79.438;2023-04-25T00:27:26;18.60;43.40
33580;DHT22;19909;43.644;-79.438;2023-04-25T00:29:52;18.60;43.60
33580;DHT22;19909;43.644;-79.438;2023-04-25T00:32:19;18.60;43.60
33580;DHT22;19909;43.644;-79.438;2023-04-25T00:34:45;18.60;43.40
33580;DHT22;19909;43.644;-79.438;2023-04-25T00:37:11;18.60;43.10
33580;DHT22;19909;43.644;-79.438;2023-04-25T00:39:38;18.60;43.10
33580;DHT22;19909;43.644;-79.438;2023-04-25T00:42:05;18.60;43.50
33580;DHT22;19909;43.644;-79.438;2023-04-25T00:44:31;18.60;43.60
33580;DHT22;19909;43.644;-79.438;2023-04-25T00:46:58;18.60;43.80
33580;DHT22;19909;43.644;-79.438;2023-04-25T00:49:24;18.60;43.60
33580;DHT22;19909;43.644;-79.438;2023-04-25T00:51:51;18.60;43.70
33580;DHT22;19909;43.644;-79.438;2023-04-25T00:54:17;18.60;43.60
33580;DHT22;19909;43.644;-79.438;2023-04-25T00:56:44;18.60;43.60
33580;DHT22;19909;43.644;-79.438;2023-04-25T00:59:10;18.60;43.70
33580;DHT22;19909;43.644;-79.438;2023-04-25T01:01:38;18.60;43.60
33580;DHT22;19909;43.644;-79.438;2023-04-25T01:04:05;18.60;43.60
33580;DHT22;19909;43.644;-79.438;2023-04-25T01:06:31;18.60;43.30
33580;DHT22;19909;43.644;-79.438;2023-04-25T01:08:59;18.60;43.10
33580;DHT22;19909;43.644;-79.438;2023-04-25T01:11:25;18.60;43.40
33580;DHT22;19909;43.644;-79.438;2023-04-25T01:13:51;18.60;43.60
33580;DHT22;19909;43.644;-79.438;2023-04-25T01:16:18;18.60;43.60
33580;DHT22;19909;43.644;-79.438;2023-04-25T01:18:46;18.50;43.40
33580;DHT22;19909;43.644;-79.438;2023-04-25T01:21:13;18.60;43.40
33580;DHT22;19909;43.644;-79.438;2023-04-25T01:23:41;18.60;43.30
33580;DHT22;19909;43.644;-79.438;2023-04-25T01:26:11;18.60;43.30
33580;DHT22;19909;43.644;-79.438;2023-04-25T01:28:39;18.60;43.30
33580;DHT22;19909;43.644;-79.438;2023-04-25T01:31:07;18.60;43.30
33580;DHT22;19909;43.644;-79.438;2023-04-25T01:33:33;18.60;43.20
33580;DHT22;19909;43.644;-79.438;2023-04-25T01:36:00;18.60;43.10
33580;DHT22;19909;43.644;-79.438;2023-04-25T01:38:26;18.60;43.00
33580;DHT22;19909;43.644;-79.438;2023-04-25T01:40:54;18.60;43.00
33580;DHT22;19909;43.644;-79.438;2023-04-25T01:43:20;18.60;43.10
33580;DHT22;19909;43.644;-79.438;2023-04-25T01:45:49;18.60;43.10
33580;DHT22;19909;43.644;-79.438;2023-04-25T01:48:15;18.60;43.20
33580;DHT22;19909;43.644;-79.438;2023-04-25T01:50:42;18.60;43.20
33580;DHT22;19909;43.644;-79.438;2023-04-25T01:53:09;18.60;43.90
33580;DHT22;19909;43.644;-79.438;2023-04-25T01:55:36;18.60;43.40
33580;DHT22;19909;43.644;-79.438;2023-04-25T01:58:03;18.60;43.50
33580;DHT22;19909;43.644;-79.438;2023-04-25T02:00:35;18.60;43.40
33580;DHT22;19909;43.644;-79.438;2023-04-25T02:03:04;18.60;43.40
33580;DHT22;19909;43.644;-79.438;2023-04-25T02:05:35;18.60;43.20
33580;DHT22;19909;43.644;-79.438;2023-04-25T02:08:04;18.60;43.00
33580;DHT22;19909;43.644;-79.438;2023-04-25T02:10:31;18.60;43.00
33580;DHT22;19909;43.644;-79.438;2023-04-25T02:12:57;18.60;43.10
33580;DHT22;19909;43.644;-79.438;2023-04-25T02:15:24;18.60;43.30
33580;DHT22;19909;43.644;-79.438;2023-04-25T02:17:50;18.60;43.40
33580;DHT22;19909;43.644;-79.438;2023-04-25T02:20:20;18.60;43.20
33580;DHT22;19909;43.644;-79.438;2023-04-25T02:22:47;18.60;43.30
33580;DHT22;19909;43.644;-79.438;2023-04-25T02:25:13;18.60;43.20
33580;DHT22;19909;43.644;-79.438;2023-04-25T02:27:39;18.50;43.30
33580;DHT22;19909;43.644;-79.438;2023-04-25T02:30:06;18.60;43.30
33580;DHT22;19909;43.644;-79.438;2023-04-25T02:32:33;18.60;43.40
33580;DHT22;19909;43.644;-79.438;2023-04-25T02:35:00;18.60;43.20
33580;DHT22;19909;43.644;-79.438;2023-04-25T02:37:33;18.60;43.00
33580;DHT22;19909;43.644;-79.438;2023-04-25T02:40:00;18.50;42.90
33580;DHT22;19909;43.644;-79.438;2023-04-25T02:42:27;18.50;43.10
33580;DHT22;19909;43.644;-79.438;2023-04-25T02:44:53;18.60;43.30
33580;DHT22;19909;43.644;-79.438;2023-04-25T02:47:19;18.50;43.30
33580;DHT22;19909;43.644;-79.438;2023-04-25T02:49:45;18.60;43.40
33580;DHT22;19909;43.644;-79.438;2023-04-25T02:52:12;18.60;43.40
33580;DHT22;19909;43.644;-79.438;2023-04-25T02:54:39;18.60;43.50
33580;DHT22;19909;43.644;-79.438;2023-04-25T02:57:06;18.60;43.40
33580;DHT22;19909;43.644;-79.438;2023-04-25T02:59:32;18.60;43.60
33580;DHT22;19909;43.644;-79.438;2023-04-25T03:01:58;18.60;43.50
33580;DHT22;19909;43.644;-79.438;2023-04-25T03:04:24;18.60;43.40
33580;DHT22;19909;43.644;-79.438;2023-04-25T03:06:51;18.60;43.00
33580;DHT22;19909;43.644;-79.438;2023-04-25T03:09:17;18.50;42.90
33580;DHT22;19909;43.644;-79.438;2023-04-25T03:11:44;18.50;43.20
33580;DHT22;19909;43.644;-79.438;2023-04-25T03:14:11;18.50;43.40
33580;DHT22;19909;43.644;-79.438;2023-04-25T03:16:38;18.50;43.40
33580;DHT22;19909;43.644;-79.438;2023-04-25T03:19:05;18.50;43.30
33580;DHT22;19909;43.644;-79.438;2023-04-25T03:21:33;18.50;43.40
33580;DHT22;19909;43.644;-79.438;2023-04-25T03:24:01;18.50;43.40
33580;DHT22;19909;43.644;-79.438;2023-04-25T03:26:28;18.60;43.50
33580;DHT22;19909;43.644;-79.438;2023-04-25T03:28:54;18.60;43.60
33580;DHT22;19909;43.644;-79.438;2023-04-25T03:31:20;18.50;43.60
33580;DHT22;19909;43.644;-79.438;2023-04-25T03:33:46;18.60;43.60
33580;DHT22;19909;43.644;-79.438;2023-04-25T03:36:16;18.50;43.10
33580;DHT22;19909;43.644;-79.438;2023-04-25T03:38:42;18.50;42.90
33580;DHT22;19909;43.644;-79.438;2023-04-25T03:41:08;18.50;43.30
33580;DHT22;19909;43.644;-79.438;2023-04-25T03:43:38;18.50;43.40
33580;DHT22;19909;43.644;-79.438;2023-04-25T03:46:05;18.50;43.40
33580;DHT22;19909;43.644;-79.438;2023-04-25T03:48:32;18.50;43.40
33580;DHT22;19909;43.644;-79.438;2023-04-25T03:50:58;18.50;43.50
33580;DHT22;19909;43.644;-79.438;2023-04-25T03:53:25;18.50;44.00
33580;DHT22;19909;43.644;-79.438;2023-04-25T03:55:51;18.50;43.60
33580;DHT22;19909;43.644;-79.438;2023-04-25T03:58:21;18.50;43.60
33580;DHT22;19909;43.644;-79.438;2023-04-25T04:00:53;18.50;43.70
33580;DHT22;19909;43.644;-79.438;2023-04-25T04:03:19;18.50;43.70
33580;DHT22;19909;43.644;-79.438;2023-04-25T04:05:48;18.50;43.20
33580;DHT22;19909;43.644;-79.438;2023-04-25T04:08:16;18.50;43.00
33580;DHT22;19909;43.644;-79.438;2023-04-25T04:10:42;18.50;43.30
33580;DHT22;19909;43.644;-79.438;2023-04-25T04:13:08;18.50;43.40
33580;DHT22;19909;43.644;-79.438;2023-04-25T04:15:34;18.50;43.50
33580;DHT22;19909;43.644;-79.438;2023-04-25T04:18:00;18.50;43.60
33580;DHT22;19909;43.644;-79.438;2023-04-25T04:20:30;18.50;43.60
33580;DHT22;19909;43.644;-79.438;2023-04-25T04:22:56;18.50;43.70
33580;DHT22;19909;43.644;-79.438;2023-04-25T04:25:22;18.50;43.70
33580;DHT22;19909;43.644;-79.438;2023-04-25T04:27:50;18.50;43.60
33580;DHT22;19909;43.644;-79.438;2023-04-25T04:30:22;18.50;43.60
33580;DHT22;19909;43.644;-79.438;2023-04-25T04:32:51;18.50;43.60
33580;DHT22;19909;43.644;-79.438;2023-04-25T04:35:17;18.50;43.20
33580;DHT22;19909;43.644;-79.438;2023-04-25T04:37:44;18.50;43.00
33580;DHT22;19909;43.644;-79.438;2023-04-25T04:40:11;18.50;43.20
33580;DHT22;19909;43.644;-79.438;2023-04-25T04:42:37;18.50;43.40
33580;DHT22;19909;43.644;-79.438;2023-04-25T04:45:04;18.50;43.40
33580;DHT22;19909;43.644;-79.438;2023-04-25T04:47:30;18.50;43.50
33580;DHT22;19909;43.644;-79.438;2023-04-25T04:49:58;18.50;43.40
33580;DHT22;19909;43.644;-79.438;2023-04-25T04:52:24;18.50;43.50
33580;DHT22;19909;43.644;-79.438;2023-04-25T04:54:50;18.50;43.50
33580;DHT22;19909;43.644;-79.438;2023-04-25T04:57:16;18.50;43.60
33580;DHT22;19909;43.644;-79.438;2023-04-25T04:59:43;18.50;43.70
33580;DHT22;19909;43.644;-79.438;2023-04-25T05:02:09;18.50;43.70
33580;DHT22;19909;43.644;-79.438;2023-04-25T05:04:35;18.50;43.40
33580;DHT22;19909;43.644;-79.438;2023-04-25T05:07:01;18.50;43.00
33580;DHT22;19909;43.644;-79.438;2023-04-25T05:09:28;18.50;43.20
33580;DHT22;19909;43.644;-79.438;2023-04-25T05:11:54;18.50;43.30
33580;DHT22;19909;43.644;-79.438;2023-04-25T05:14:21;18.50;43.40
33580;DHT22;19909;43.644;-79.438;2023-04-25T05:16:48;18.50;43.50
33580;DHT22;19909;43.644;-79.438;2023-04-25T05:19:14;18.50;44.00
33580;DHT22;19909;43.644;-79.438;2023-04-25T05:21:40;18.50;43.50
33580;DHT22;19909;43.644;-79.438;2023-04-25T05:24:09;18.50;43.50
33580;DHT22;19909;43.644;-79.438;2023-04-25T05:26:35;18.50;43.70
33580;DHT22;19909;43.644;-79.438;2023-04-25T05:29:01;18.50;43.70
33580;DHT22;19909;43.644;-79.438;2023-04-25T05:31:27;18.50;43.70
33580;DHT22;19909;43.644;-79.438;2023-04-25T05:33:53;18.50;43.50
33580;DHT22;19909;43.644;-79.438;2023-04-25T05:36:20;18.50;43.10
33580;DHT22;19909;43.644;-79.438;2023-04-25T05:38:46;18.50;43.10
33580;DHT22;19909;43.644;-79.438;2023-04-25T05:41:12;18.50;43.30
33580;DHT22;19909;43.644;-79.438;2023-04-25T05:43:38;18.50;43.40
33580;DHT22;19909;43.644;-79.438;2023-04-25T05:46:05;18.50;43.40
33580;DHT22;19909;43.644;-79.438;2023-04-25T05:48:31;18.50;43.50
33580;DHT22;19909;43.644;-79.438;2023-04-25T05:50:57;18.50;43.50
33580;DHT22;19909;43.644;-79.438;2023-04-25T05:53:23;18.50;43.60
33580;DHT22;19909;43.644;-79.438;2023-04-25T05:55:50;18.50;43.60
33580;DHT22;19909;43.644;-79.438;2023-04-25T05:58:16;18.50;43.60
33580;DHT22;19909;43.644;-79.438;2023-04-25T06:00:42;18.50;43.60
33580;DHT22;19909;43.644;-79.438;2023-04-25T06:03:08;18.50;43.70
33580;DHT22;19909;43.644;-79.438;2023-04-25T06:05:39;18.50;43.20
33580;DHT22;19909;43.644;-79.438;2023-04-25T06:08:05;18.50;43.00
33580;DHT22;19909;43.644;-79.438;2023-04-25T06:10:31;18.50;43.20
33580;DHT22;19909;43.644;-79.438;2023-04-25T06:12:57;18.50;43.40
33580;DHT22;19909;43.644;-79.438;2023-04-25T06:15:23;18.50;43.40
33580;DHT22;19909;43.644;-79.438;2023-04-25T06:17:50;18.50;43.50
33580;DHT22;19909;43.644;-79.438;2023-04-25T06:20:16;18.50;43.50
33580;DHT22;19909;43.644;-79.438;2023-04-25T06:22:42;18.50;43.60
33580;DHT22;19909;43.644;-79.438;2023-04-25T06:25:08;18.50;43.60
33580;DHT22;19909;43.644;-79.438;2023-04-25T06:27:35;18.50;43.70
33580;DHT22;19909;43.644;-79.438;2023-04-25T06:30:01;18.50;43.70
33580;DHT22;19909;43.644;-79.438;2023-04-25T06:32:27;18.50;43.70
33580;DHT22;19909;43.644;-79.438;2023-04-25T06:34:55;18.40;43.30
33580;DHT22;19909;43.644;-79.438;2023-04-25T06:37:22;18.50;43.00
33580;DHT22;19909;43.644;-79.438;2023-04-25T06:39:48;18.50;43.00
33580;DHT22;19909;43.644;-79.438;2023-04-25T06:42:14;18.50;43.30
33580;DHT22;19909;43.644;-79.438;2023-04-25T06:44:40;18.50;43.40
33580;DHT22;19909;43.644;-79.438;2023-04-25T06:47:07;18.50;43.50
33580;DHT22;19909;43.644;-79.438;2023-04-25T06:49:33;18.50;43.50
33580;DHT22;19909;43.644;-79.438;2023-04-25T06:51:59;18.50;43.60
33580;DHT22;19909;43.644;-79.438;2023-04-25T06:54:25;18.50;43.70
33580;DHT22;19909;43.644;-79.438;2023-04-25T06:56:53;18.50;43.70
33580;DHT22;19909;43.644;-79.438;2023-04-25T06:59:19;18.50;43.70
33580;DHT22;19909;43.644;-79.438;2023-04-25T07:01:45;18.50;43.60
33580;DHT22;19909;43.644;-79.438;2023-04-25T07:04:11;18.50;43.50
33580;DHT22;19909;43.644;-79.438;2023-04-25T07:06:38;18.50;43.10
33580;DHT22;19909;43.644;-79.438;2023-04-25T07:09:08;18.50;43.00
33580;DHT22;19909;43.644;-79.438;2023-04-25T07:11:41;18.40;43.20
33580;DHT22;19909;43.644;-79.438;2023-04-25T07:14:07;18.40;43.30
33580;DHT22;19909;43.644;-79.438;2023-04-25T07:16:33;18.50;43.50
33580;DHT22;19909;43.644;-79.438;2023-04-25T07:19:00;18.50;43.50
33580;DHT22;19909;43.644;-79.438;2023-04-25T07:21:26;18.50;43.50
33580;DHT22;19909;43.644;-79.438;2023-04-25T07:23:52;18.50;43.60
33580;DHT22;19909;43.644;-79.438;2023-04-25T07:26:18;18.50;43.60
33580;DHT22;19909;43.644;-79.438;2023-04-25T07:28:46;18.50;43.60
33580;DHT22;19909;43.644;-79.438;2023-04-25T07:31:15;18.50;43.70
33580;DHT22;19909;43.644;-79.438;2023-04-25T07:33:44;18.50;43.60
33580;DHT22;19909;43.644;-79.438;2023-04-25T07:36:13;18.40;43.00
33580;DHT22;19909;43.644;-79.438;2023-04-25T07:38:41;18.40;43.10
33580;DHT22;19909;43.644;-79.438;2023-04-25T07:41:07;18.40;43.20
33580;DHT22;19909;43.644;-79.438;2023-04-25T07:43:33;18.40;43.30
33580;DHT22;19909;43.644;-79.438;2023-04-25T07:45:59;18.40;43.40
33580;DHT22;19909;43.644;-79.438;2023-04-25T07:48:26;18.40;43.40
33580;DHT22;19909;43.644;-79.438;2023-04-25T07:50:52;18.40;43.50
33580;DHT22;19909;43.644;-79.438;2023-04-25T07:53:18;18.50;43.60
33580;DHT22;19909;43.644;-79.438;2023-04-25T07:55:44;18.50;43.60
33580;DHT22;19909;43.644;-79.438;2023-04-25T07:58:11;18.50;43.60
33580;DHT22;19909;43.644;-79.438;2023-04-25T08:00:38;18.50;43.70
33580;DHT22;19909;43.644;-79.438;2023-04-25T08:03:04;18.50;43.70
33580;DHT22;19909;43.644;-79.438;2023-04-25T08:05:30;18.50;43.20
33580;DHT22;19909;43.644;-79.438;2023-04-25T08:07:56;18.40;43.00
33580;DHT22;19909;43.644;-79.438;2023-04-25T08:10:23;18.40;43.10
33580;DHT22;19909;43.644;-79.438;2023-04-25T08:12:49;18.40;43.20
33580;DHT22;19909;43.644;-79.438;2023-04-25T08:15:15;18.40;43.30
33580;DHT22;19909;43.644;-79.438;2023-04-25T08:17:41;18.50;43.40
33580;DHT22;19909;43.644;-79.438;2023-04-25T08:20:10;18.40;43.40
33580;DHT22;19909;43.644;-79.438;2023-04-25T08:22:36;18.50;43.60
33580;DHT22;19909;43.644;-79.438;2023-04-25T08:25:03;18.40;43.50
33580;DHT22;19909;43.644;-79.438;2023-04-25T08:27:29;18.40;43.60
33580;DHT22;19909;43.644;-79.438;2023-04-25T08:29:56;18.40;43.50
33580;DHT22;19909;43.644;-79.438;2023-04-25T08:32:23;18.40;43.60
33580;DHT22;19909;43.644;-79.438;2023-04-25T08:34:49;18.40;43.30
33580;DHT22;19909;43.644;-79.438;2023-04-25T08:37:17;18.40;43.00
33580;DHT22;19909;43.644;-79.438;2023-04-25T08:39:45;18.40;43.10
33580;DHT22;19909;43.644;-79.438;2023-04-25T08:42:12;18.40;43.30
33580;DHT22;19909;43.644;-79.438;2023-04-25T08:44:40;18.40;43.30
33580;DHT22;19909;43.644;-79.438;2023-04-25T08:47:06;18.40;43.30
33580;DHT22;19909;43.644;-79.438;2023-04-25T08:49:33;18.40;43.40
33580;DHT22;19909;43.644;-79.438;2023-04-25T08:52:02;18.40;43.40
33580;DHT22;19909;43.644;-79.438;2023-04-25T08:54:31;18.40;43.50
33580;DHT22;19909;43.644;-79.438;2023-04-25T08:57:01;18.40;43.50
33580;DHT22;19909;43.644;-79.438;2023-04-25T08:59:28;18.40;43.50
33580;DHT22;19909;43.644;-79.438;2023-04-25T09:01:55;18.40;43.50
33580;DHT22;19909;43.644;-79.438;2023-04-25T09:04:22;18.40;43.50
33580;DHT22;19909;43.644;-79.438;2023-04-25T09:06:48;18.40;43.00
33580;DHT22;19909;43.644;-79.438;2023-04-25T09:09:14;18.40;43.10
33580;DHT22;19909;43.644;-79.438;2023-04-25T09:11:41;18.40;43.20
33580;DHT22;19909;43.644;-79.438;2023-04-25T09:14:15;18.40;43.30
33580;DHT22;19909;43.644;-79.438;2023-04-25T09:19:28;18.40;43.40
33580;DHT22;19909;43.644;-79.438;2023-04-25T09:21:56;18.40;43.40
33580;DHT22;19909;43.644;-79.438;2023-04-25T09:24:37;18.40;43.50
33580;DHT22;19909;43.644;-79.438;2023-04-25T09:27:05;18.40;43.50
33580;DHT22;19909;43.644;-79.438;2023-04-25T09:29:33;18.40;43.50
33580;DHT22;19909;43.644;-79.438;2023-04-25T09:34:43;18.40;43.20
33580;DHT22;19909;43.644;-79.438;2023-04-25T09:37:10;18.40;43.00
33580;DHT22;19909;43.644;-79.438;2023-04-25T09:39:39;18.40;43.10
33580;DHT22;19909;43.644;-79.438;2023-04-25T09:42:07;18.40;43.20
33580;DHT22;19909;43.644;-79.438;2023-04-25T09:44:36;18.40;43.20
33580;DHT22;19909;43.644;-79.438;2023-04-25T09:47:02;18.40;43.30
33580;DHT22;19909;43.644;-79.438;2023-04-25T09:49:28;18.40;43.40
33580;DHT22;19909;43.644;-79.438;2023-04-25T09:51:58;18.40;43.50
33580;DHT22;19909;43.644;-79.438;2023-04-25T09:54:25;18.40;43.40
33580;DHT22;19909;43.644;-79.438;2023-04-25T09:56:52;18.40;43.50
33580;DHT22;19909;43.644;-79.438;2023-04-25T09:59:22;18.40;43.50
33580;DHT22;19909;43.644;-79.438;2023-04-25T10:01:49;18.40;43.50
33580;DHT22;19909;43.644;-79.438;2023-04-25T10:04:23;18.40;43.30
33580;DHT22;19909;43.644;-79.438;2023-04-25T10:06:53;18.40;43.10
33580;DHT22;19909;43.644;-79.438;2023-04-25T10:09:21;18.40;43.00
33580;DHT22;19909;43.644;-79.438;2023-04-25T10:11:54;18.40;43.10
33580;DHT22;19909;43.644;-79.438;2023-04-25T10:14:23;18.40;43.20
33580;DHT22;19909;43.644;-79.438;2023-04-25T10:16:51;18.40;43.20
33580;DHT22;19909;43.644;-79.438;2023-04-25T10:19:21;18.40;43.40
33580;DHT22;19909;43.644;-79.438;2023-04-25T10:22:30;18.40;43.40
33580;DHT22;19909;43.644;-79.438;2023-04-25T10:24:55;18.40;43.40
33580;DHT22;19909;43.644;-79.438;2023-04-25T10:27:22;18.40;43.50
33580;DHT22;19909;43.644;-79.438;2023-04-25T10:30:09;18.40;43.50
33580;DHT22;19909;43.644;-79.438;2023-04-25T10:32:37;18.40;43.40
33580;DHT22;19909;43.644;-79.438;2023-04-25T10:35:14;18.40;43.20
33580;DHT22;19909;43.644;-79.438;2023-04-25T10:40:26;18.40;43.10
33580;DHT22;19909;43.644;-79.438;2023-04-25T10:42:53;18.40;43.20
33580;DHT22;19909;43.644;-79.438;2023-04-25T10:45:23;18.40;43.30
33580;DHT22;19909;43.644;-79.438;2023-04-25T10:47:49;18.40;43.30
33580;DHT22;19909;43.644;-79.438;2023-04-25T10:50:15;18.40;43.40
33580;DHT22;19909;43.644;-79.438;2023-04-25T10:52:44;18.40;43.40
33580;DHT22;19909;43.644;-79.438;2023-04-25T10:55:11;18.40;43.40
33580;DHT22;19909;43.644;-79.438;2023-04-25T10:57:41;18.40;43.40
33580;DHT22;19909;43.644;-79.438;2023-04-25T11:00:15;18.40;43.40
33580;DHT22;19909;43.644;-79.438;2023-04-25T11:02:44;18.40;43.50
33580;DHT22;19909;43.644;-79.438;2023-04-25T11:05:24;18.40;43.00
33580;DHT22;19909;43.644;-79.438;2023-04-25T11:07:55;18.40;42.90
33580;DHT22;19909;43.644;-79.438;2023-04-25T11:10:32;18.30;43.00
33580;DHT22;19909;43.644;-79.438;2023-04-25T11:13:01;18.30;43.10
33580;DHT22;19909;43.644;-79.438;2023-04-25T11:15:27;18.40;43.20
33580;DHT22;19909;43.644;-79.438;2023-04-25T11:17:54;18.40;43.30
33580;DHT22;19909;43.644;-79.438;2023-04-25T11:20:21;18.40;43.40
33580;DHT22;19909;43.644;-79.438;2023-04-25T11:22:48;18.40;43.30
33580;DHT22;19909;43.644;-79.438;2023-04-25T11:25:15;18.40;43.40
33580;DHT22;19909;43.644;-79.438;2023-04-25T11:27:57;18.40;43.40
33580;DHT22;19909;43.644;-79.438;2023-04-25T11:30:24;18.30;43.40
33580;DHT22;19909;43.644;-79.438;2023-04-25T11:32:51;18.40;43.50
33580;DHT22;19909;43.644;-79.438;2023-04-25T11:35:20;18.40;43.00
33580;DHT22;19909;43.644;-79.438;2023-04-25T11:37:49;18.40;42.80
33580;DHT22;19909;43.644;-79.438;2023-04-25T11:40:16;18.40;42.90
33580;DHT22;19909;43.644;-79.438;2023-04-25T11:42:46;18.30;43.00
33580;DHT22;19909;43.644;-79.438;2023-04-25T11:45:13;18.40;43.20
33580;DHT22;19909;43.644;-79.438;2023-04-25T11:47:40;18.40;43.20
33580;DHT22;19909;43.644;-79.438;2023-04-25T11:50:08;18.40;43.40
33580;DHT22;19909;43.644;-79.438;2023-04-25T11:52:41;18.40;43.40
33580;DHT22;19909;43.644;-79.438;2023-04-25T11:55:20;18.30;43.30
33580;DHT22;19909;43.644;-79.438;2023-04-25T11:57:49;18.40;43.40
33580;DHT22;19909;43.644;-79.438;2023-04-25T12:00:20;18.30;43.40
33580;DHT22;19909;43.644;-79.438;2023-04-25T12:02:51;18.40;43.40
33580;DHT22;19909;43.644;-79.438;2023-04-25T12:05:18;18.30;42.90
33580;DHT22;19909;43.644;-79.438;2023-04-25T12:07:45;18.30;42.70
33580;DHT22;19909;43.644;-79.438;2023-04-25T12:10:13;18.30;42.90
33580;DHT22;19909;43.644;-79.438;2023-04-25T12:12:47;18.30;43.00
33580;DHT22;19909;43.644;-79.438;2023-04-25T12:15:15;18.40;43.20
33580;DHT22;19909;43.644;-79.438;2023-04-25T12:17:46;18.30;43.20
33580;DHT22;19909;43.644;-79.438;2023-04-25T12:20:16;18.30;43.30
33580;DHT22;19909;43.644;-79.438;2023-04-25T12:22:45;18.40;43.40
33580;DHT22;19909;43.644;-79.438;2023-04-25T12:25:38;18.30;43.40
33580;DHT22;19909;43.644;-79.438;2023-04-25T12:28:24;18.30;43.50
33580;DHT22;19909;43.644;-79.438;2023-04-25T12:33:28;18.30;43.50
33580;DHT22;19909;43.644;-79.438;2023-04-25T12:35:55;18.30;42.90
33580;DHT22;19909;43.644;-79.438;2023-04-25T12:38:29;18.40;42.80
33580;DHT22;19909;43.644;-79.438;2023-04-25T12:40:57;18.30;43.00
33580;DHT22;19909;43.644;-79.438;2023-04-25T12:43:23;18.30;43.10
33580;DHT22;19909;43.644;-79.438;2023-04-25T12:45:51;18.30;43.20
33580;DHT22;19909;43.644;-79.438;2023-04-25T12:48:18;18.30;43.20
33580;DHT22;19909;43.644;-79.438;2023-04-25T12:50:45;18.30;43.30
33580;DHT22;19909;43.644;-79.438;2023-04-25T12:53:13;18.30;43.30
33580;DHT22;19909;43.644;-79.438;2023-04-25T12:55:40;18.40;43.40
33580;DHT22;19909;43.644;-79.438;2023-04-25T12:58:07;18.30;43.30
33580;DHT22;19909;43.644;-79.438;2023-04-25T13:00:33;18.40;43.40
33580;DHT22;19909;43.644;-79.438;2023-04-25T13:02:59;18.40;43.40
33580;DHT22;19909;43.644;-79.438;2023-04-25T13:05:26;18.30;42.90
33580;DHT22;19909;43.644;-79.438;2023-04-25T13:07:52;18.30;42.80
33580;DHT22;19909;43.644;-79.438;2023-04-25T13:10:18;18.30;42.90
33580;DHT22;19909;43.644;-79.438;2023-04-25T13:12:44;18.30;43.00
33580;DHT22;19909;43.644;-79.438;2023-04-25T13:15:11;18.30;43.10
33580;DHT22;19909;43.644;-79.438;2023-04-25T13:17:38;18.30;43.20
33580;DHT22;19909;43.644;-79.438;2023-04-25T13:20:05;18.40;43.30
33580;DHT22;19909;43.644;-79.438;2023-04-25T13:22:35;18.40;43.30
33580;DHT22;19909;43.644;-79.438;2023-04-25T13:25:03;18.30;43.30
33580;DHT22;19909;43.644;-79.438;2023-04-25T13:27:29;18.40;43.40
33580;DHT22;19909;43.644;-79.438;2023-04-25T13:29:58;18.40;43.40
33580;DHT22;19909;43.644;-79.438;2023-04-25T13:32:24;18.40;43.50
33580;DHT22;19909;43.644;-79.438;2023-04-25T13:34:51;18.30;43.10
33580;DHT22;19909;43.644;-79.438;2023-04-25T13:37:18;18.30;42.80
33580;DHT22;19909;43.644;-79.438;2023-04-25T13:39:45;18.30;42.80
33580;DHT22;19909;43.644;-79.438;2023-04-25T13:42:11;18.30;43.00
33580;DHT22;19909;43.644;-79.438;2023-04-25T13:44:37;18.30;43.10
33580;DHT22;19909;43.644;-79.438;2023-04-25T13:47:03;18.30;43.10
33580;DHT22;19909;43.644;-79.438;2023-04-25T13:49:30;18.30;43.20
33580;DHT22;19909;43.644;-79.438;2023-04-25T13:51:56;18.30;43.20
33580;DHT22;19909;43.644;-79.438;2023-04-25T13:54:22;18.30;43.30
33580;DHT22;19909;43.644;-79.438;2023-04-25T13:56:49;18.30;43.30
33580;DHT22;19909;43.644;-79.438;2023-04-25T13:59:16;18.30;43.40
33580;DHT22;19909;43.644;-79.438;2023-04-25T14:01:42;18.40;43.40
33580;DHT22;19909;43.644;-79.438;2023-04-25T14:04:08;18.30;43.40
33580;DHT22;19909;43.644;-79.438;2023-04-25T14:06:34;18.30;42.90
33580;DHT22;19909;43.644;-79.438;2023-04-25T14:09:01;18.30;42.90
33580;DHT22;19909;43.644;-79.438;2023-04-25T14:11:29;18.30;43.00
33580;DHT22;19909;43.644;-79.438;2023-04-25T14:13:55;18.30;43.10
33580;DHT22;19909;43.644;-79.438;2023-04-25T14:16:21;18.30;43.20
33580;DHT22;19909;43.644;-79.438;2023-04-25T14:18:48;18.30;43.30
33580;DHT22;19909;43.644;-79.438;2023-04-25T14:21:14;18.30;43.30
33580;DHT22;19909;43.644;-79.438;2023-04-25T14:23:40;18.30;43.30
33580;DHT22;19909;43.644;-79.438;2023-04-25T14:26:07;18.30;43.40
33580;DHT22;19909;43.644;-79.438;2023-04-25T14:28:35;18.30;43.90
33580;DHT22;19909;43.644;-79.438;2023-04-25T14:31:01;18.30;43.40
33580;DHT22;19909;43.644;-79.438;2023-04-25T14:33:27;18.30;43.40
33580;DHT22;19909;43.644;-79.438;2023-04-25T14:35:54;18.30;43.10
33580;DHT22;19909;43.644;-79.438;2023-04-25T14:38:20;18.30;42.90
33580;DHT22;19909;43.644;-79.438;2023-04-25T14:40:49;18.30;43.00
33580;DHT22;19909;43.644;-79.438;2023-04-25T14:43:15;18.30;43.20
33580;DHT22;19909;43.644;-79.438;2023-04-25T14:45:41;18.30;43.30
33580;DHT22;19909;43.644;-79.438;2023-04-25T14:48:08;18.30;43.30
33580;DHT22;19909;43.644;-79.438;2023-04-25T14:50:34;18.30;43.30
33580;DHT22;19909;43.644;-79.438;2023-04-25T14:53:00;18.30;43.40
33580;DHT22;19909;43.644;-79.438;2023-04-25T14:55:27;18.30;43.40
33580;DHT22;19909;43.644;-79.438;2023-04-25T14:57:54;18.30;43.50
33580;DHT22;19909;43.644;-79.438;2023-04-25T15:00:21;18.30;43.50
33580;DHT22;19909;43.644;-79.438;2023-04-25T15:02:50;18.30;43.50
33580;DHT22;19909;43.644;-79.438;2023-04-25T15:05:17;18.30;43.20
33580;DHT22;19909;43.644;-79.438;2023-04-25T15:07:43;18.30;43.00
33580;DHT22;19909;43.644;-79.438;2023-04-25T15:10:10;18.30;43.60
33580;DHT22;19909;43.644;-79.438;2023-04-25T15:12:39;18.30;43.10
33580;DHT22;19909;43.644;-79.438;2023-04-25T15:15:07;18.30;43.30